createdAt,value
2022-11-16T00:01:30.492Z,1.91
2022-11-16T00:03:59.301Z,1.90
2022-11-16T00:06:27.390Z,1.91
2022-11-16T00:09:15.339Z,1.93
2022-11-16T00:11:42.177Z,1.96
2022-11-16T00:14:09.102Z,1.99
2022-11-16T00:16:35.800Z,2.02
2022-11-16T00:19:04.413Z,2.08
2022-11-16T00:21:32.586Z,2.09
2022-11-16T00:23:59.481Z,2.10
2022-11-16T00:26:26.791Z,2.11
2022-11-16T00:28:54.176Z,2.11
2022-11-16T00:31:21.718Z,2.10
2022-11-16T00:33:49.883Z,2.10
2022-11-16T00:36:16.753Z,2.09
2022-11-16T00:38:43.494Z,2.10
2022-11-16T00:41:13.285Z,2.10
2022-11-16T00:43:40.270Z,2.08
2022-11-16T00:46:08.628Z,2.07
2022-11-16T00:48:36.231Z,2.06
2022-11-16T00:51:03.472Z,2.06
2022-11-16T00:53:30.283Z,2.06
2022-11-16T00:55:57.173Z,2.05
2022-11-16T00:58:24.812Z,2.05
2022-11-16T01:01:07.459Z,2.04
2022-11-16T01:03:35.523Z,2.05
2022-11-16T01:06:04.978Z,2.05
2022-11-16T01:08:32.498Z,2.06
2022-11-16T01:11:20.447Z,2.03
2022-11-16T01:13:48.189Z,2.04
2022-11-16T01:16:17.052Z,2.05
2022-11-16T01:18:47.850Z,2.06
2022-11-16T01:21:14.697Z,2.05
2022-11-16T01:23:41.537Z,2.05
2022-11-16T01:26:08.365Z,2.06
2022-11-16T01:28:36.531Z,2.06
2022-11-16T01:31:03.792Z,2.04
2022-11-16T01:33:33.522Z,2.04
2022-11-16T01:36:00.448Z,2.02
2022-11-16T01:38:29.977Z,2.01
2022-11-16T01:40:57.806Z,2.01
2022-11-16T01:43:27.323Z,2.02
2022-11-16T01:46:00.510Z,1.99
2022-11-16T01:48:29.866Z,1.97
2022-11-16T01:50:58.584Z,1.96
2022-11-16T01:53:25.737Z,1.96
2022-11-16T01:55:55.692Z,1.96
2022-11-16T01:58:31.026Z,1.93
2022-11-16T02:01:10.859Z,1.90
2022-11-16T02:03:49.589Z,1.87
2022-11-16T02:06:31.725Z,1.84
2022-11-16T02:09:53.046Z,1.80
2022-11-16T02:12:49.258Z,1.78
2022-11-16T02:15:30.771Z,1.78
2022-11-16T02:18:20.533Z,1.81
2022-11-16T02:21:02.273Z,1.87
2022-11-16T02:23:50.239Z,1.89
2022-11-16T02:26:28.372Z,1.93
2022-11-16T02:29:30.375Z,1.97
2022-11-16T02:32:04.140Z,2.05
2022-11-16T02:34:40.185Z,2.10
2022-11-16T02:37:11.322Z,2.16
2022-11-16T02:39:39.479Z,2.21
2022-11-16T02:42:13.775Z,2.27
2022-11-16T02:44:46.013Z,2.32
2022-11-16T02:47:20.388Z,2.38
2022-11-16T02:49:53.831Z,2.44
2022-11-16T02:52:23.041Z,2.50
2022-11-16T02:54:49.929Z,2.55
2022-11-16T02:57:41.639Z,2.60
2022-11-16T03:00:47.779Z,2.66
2022-11-16T03:03:30.066Z,2.71
2022-11-16T03:06:08.140Z,2.74
2022-11-16T03:08:51.680Z,2.78
2022-11-16T03:11:37.272Z,2.82
2022-11-16T03:14:18.214Z,2.87
2022-11-16T03:16:55.341Z,2.90
2022-11-16T03:19:29.477Z,2.92
2022-11-16T03:22:03.080Z,2.94
2022-11-16T03:24:31.029Z,2.97
2022-11-16T03:27:06.862Z,2.98
2022-11-16T03:30:04.172Z,3.00
2022-11-16T03:32:58.869Z,3.03
2022-11-16T03:35:41.431Z,3.04
2022-11-16T03:38:10.764Z,3.06
2022-11-16T03:40:41.189Z,3.08
2022-11-16T03:43:08.779Z,3.05
2022-11-16T03:45:36.564Z,2.98
2022-11-16T03:48:06.452Z,2.95
2022-11-16T03:50:33.742Z,2.95
2022-11-16T03:53:01.150Z,2.96
2022-11-16T03:55:27.898Z,2.98
2022-11-16T03:57:55.285Z,3.02
2022-11-16T04:00:22.007Z,3.08
2022-11-16T04:02:50.125Z,3.12
2022-11-16T04:05:38.421Z,3.11
2022-11-16T04:08:24.145Z,3.07
2022-11-16T04:11:09.711Z,3.09
2022-11-16T04:13:55.562Z,3.11
2022-11-16T04:16:41.147Z,3.12
2022-11-16T04:19:27.563Z,3.12
2022-11-16T04:22:31.245Z,3.12
2022-11-16T04:25:07.526Z,3.13
2022-11-16T04:27:54.390Z,3.13
2022-11-16T04:30:21.226Z,3.06
2022-11-16T04:33:07.114Z,3.11
2022-11-16T04:35:53.940Z,3.09
2022-11-16T04:38:20.724Z,3.08
2022-11-16T04:40:47.511Z,3.09
2022-11-16T04:43:14.374Z,3.08
2022-11-16T04:46:01.393Z,3.07
2022-11-16T04:48:34.565Z,3.07
2022-11-16T04:51:02.106Z,3.08
2022-11-16T04:53:28.914Z,3.08
2022-11-16T04:56:02.462Z,3.09
2022-11-16T04:58:29.557Z,3.10
2022-11-16T05:00:56.576Z,3.11
2022-11-16T05:03:23.304Z,3.12
2022-11-16T05:05:50.227Z,3.12
2022-11-16T05:08:17.492Z,3.12
2022-11-16T05:10:45.001Z,3.11
2022-11-16T05:13:11.772Z,3.13
2022-11-16T05:15:38.561Z,3.14
2022-11-16T05:18:05.269Z,3.15
2022-11-16T05:20:51.723Z,3.16
2022-11-16T05:23:37.118Z,3.17
2022-11-16T05:26:08.027Z,3.20
2022-11-16T05:28:34.965Z,3.20
2022-11-16T05:31:02.536Z,3.21
2022-11-16T05:33:30.460Z,3.23
2022-11-16T05:35:57.740Z,3.24
2022-11-16T05:38:24.528Z,3.26
2022-11-16T05:40:54.037Z,3.25
2022-11-16T05:43:20.928Z,3.30
2022-11-16T05:45:56.634Z,3.31
2022-11-16T05:48:23.532Z,3.33
2022-11-16T05:50:50.522Z,3.37
2022-11-16T05:53:24.025Z,3.38
2022-11-16T05:55:51.348Z,3.40
2022-11-16T05:58:18.531Z,3.43
2022-11-16T06:00:46.367Z,3.44
2022-11-16T06:03:13.576Z,3.45
2022-11-16T06:05:41.268Z,3.46
2022-11-16T06:08:09.253Z,3.48
2022-11-16T06:10:36.513Z,3.51
2022-11-16T06:13:03.366Z,3.52
2022-11-16T06:15:30.542Z,3.53
2022-11-16T06:17:57.849Z,3.55
2022-11-16T06:20:24.948Z,3.56
2022-11-16T06:22:52.654Z,3.56
2022-11-16T06:25:19.485Z,3.57
2022-11-16T06:27:46.557Z,3.57
2022-11-16T06:30:15.849Z,3.58
2022-11-16T06:32:44.145Z,3.60
2022-11-16T06:35:10.880Z,3.61
2022-11-16T06:37:38.199Z,3.65
2022-11-16T06:40:05.858Z,3.66
2022-11-16T06:42:35.009Z,3.67
2022-11-16T06:45:01.904Z,3.71
2022-11-16T06:47:31.903Z,3.75
2022-11-16T06:49:58.770Z,3.78
2022-11-16T06:52:25.798Z,3.83
2022-11-16T06:54:52.506Z,3.85
2022-11-16T06:57:19.259Z,3.86
2022-11-16T06:59:46.275Z,3.89
2022-11-16T07:02:13.243Z,3.91
2022-11-16T07:04:40.332Z,3.94
2022-11-16T07:07:07.188Z,3.96
2022-11-16T07:09:34.363Z,4.00
2022-11-16T07:12:01.270Z,4.02
2022-11-16T07:14:29.549Z,4.04
2022-11-16T07:17:00.345Z,4.09
2022-11-16T07:19:28.843Z,4.15
2022-11-16T07:21:56.080Z,4.22
2022-11-16T07:24:23.249Z,4.24
2022-11-16T07:26:49.968Z,4.26
2022-11-16T07:29:18.857Z,4.25
2022-11-16T07:32:02.978Z,4.24
2022-11-16T07:34:48.297Z,4.23
2022-11-16T07:37:16.884Z,4.24
2022-11-16T07:39:45.044Z,4.23
2022-11-16T07:42:12.904Z,4.20
2022-11-16T07:45:01.062Z,4.22
2022-11-16T07:47:27.721Z,4.23
2022-11-16T07:49:54.520Z,4.24
2022-11-16T07:52:24.828Z,4.29
2022-11-16T07:55:01.208Z,4.33
2022-11-16T07:57:29.300Z,4.35
2022-11-16T07:59:58.366Z,4.36
2022-11-16T08:02:25.435Z,4.34
2022-11-16T08:04:52.225Z,4.35
2022-11-16T08:07:23.019Z,4.38
2022-11-16T08:09:52.943Z,4.37
2022-11-16T08:12:20.651Z,4.39
2022-11-16T08:14:47.597Z,4.47
2022-11-16T08:17:15.157Z,4.57
2022-11-16T08:19:43.211Z,4.63
2022-11-16T08:22:12.519Z,4.68
2022-11-16T08:24:39.679Z,4.84
2022-11-16T08:27:06.419Z,5.08
2022-11-16T08:29:33.381Z,5.24
2022-11-16T08:32:01.008Z,5.37
2022-11-16T08:34:27.755Z,5.44
2022-11-16T08:36:58.081Z,5.52
2022-11-16T08:39:30.048Z,5.53
2022-11-16T08:41:57.910Z,5.54
2022-11-16T08:44:24.696Z,5.56
2022-11-16T08:46:53.362Z,5.67
2022-11-16T08:49:28.676Z,5.83
2022-11-16T08:51:55.707Z,5.96
2022-11-16T08:54:22.528Z,6.37
2022-11-16T08:56:49.444Z,6.79
2022-11-16T08:59:17.184Z,6.65
2022-11-16T09:01:49.463Z,6.42
2022-11-16T09:04:18.098Z,6.46
2022-11-16T09:06:45.445Z,6.59
2022-11-16T09:09:13.446Z,6.63
2022-11-16T09:11:40.723Z,6.61
2022-11-16T09:14:08.341Z,6.49
2022-11-16T09:16:35.089Z,6.45
2022-11-16T09:19:01.846Z,6.54
2022-11-16T09:21:29.737Z,6.63
2022-11-16T09:23:57.690Z,6.69
2022-11-16T09:26:25.726Z,6.84
2022-11-16T09:28:55.209Z,6.98
2022-11-16T09:31:23.808Z,6.93
2022-11-16T09:33:51.130Z,6.89
2022-11-16T09:36:18.048Z,6.85
2022-11-16T09:39:17.745Z,6.77
2022-11-16T09:41:35.454Z,6.67
2022-11-16T09:44:07.668Z,6.61
2022-11-16T09:46:40.720Z,6.57
2022-11-16T09:49:22.197Z,6.50
2022-11-16T09:51:54.694Z,6.50
2022-11-16T09:54:26.988Z,6.48
2022-11-16T09:56:58.716Z,6.51
2022-11-16T09:59:40.585Z,6.51
2022-11-16T10:02:21.540Z,6.43
2022-11-16T10:04:57.946Z,6.35
2022-11-16T10:07:41.075Z,6.26
2022-11-16T10:10:16.751Z,6.31
2022-11-16T10:13:21.012Z,6.43
2022-11-16T10:16:09.706Z,6.50
2022-11-16T10:18:53.529Z,6.52
2022-11-16T10:21:20.215Z,6.50
2022-11-16T10:24:19.490Z,6.40
2022-11-16T10:27:12.267Z,6.39
2022-11-16T10:29:39.096Z,6.48
2022-11-16T10:32:27.533Z,6.55
2022-11-16T10:34:54.412Z,6.57
2022-11-16T10:37:23.920Z,6.54
2022-11-16T10:39:52.761Z,6.60
2022-11-16T10:42:26.264Z,6.64
2022-11-16T10:44:59.782Z,6.68
2022-11-16T10:47:42.190Z,6.73
2022-11-16T10:50:33.385Z,6.74
2022-11-16T10:53:00.885Z,6.73
2022-11-16T10:55:30.577Z,6.68
2022-11-16T10:58:01.746Z,6.66
2022-11-16T11:00:40.810Z,6.67
2022-11-16T11:03:10.271Z,6.82
2022-11-16T11:05:47.636Z,6.94
2022-11-16T11:08:25.429Z,7.02
2022-11-16T11:11:25.051Z,6.98
2022-11-16T11:14:03.525Z,6.90
2022-11-16T11:16:32.136Z,6.82
2022-11-16T11:19:17.473Z,6.76
2022-11-16T11:21:44.613Z,6.71
2022-11-16T11:24:43.268Z,6.68
2022-11-16T11:27:03.662Z,6.63
2022-11-16T11:29:35.206Z,6.39
2022-11-16T11:32:07.598Z,6.48
2022-11-16T11:34:46.834Z,6.40
2022-11-16T11:37:21.120Z,6.30
2022-11-16T11:39:47.929Z,6.26
2022-11-16T11:42:14.666Z,6.22
2022-11-16T11:44:52.129Z,6.20
2022-11-16T11:50:26.565Z,6.23
2022-11-16T11:53:04.931Z,6.25
2022-11-16T11:55:31.710Z,6.30
2022-11-16T11:58:01.217Z,6.32
2022-11-16T12:00:52.952Z,6.39
2022-11-16T12:03:38.333Z,6.48
2022-11-16T12:06:28.294Z,6.56
2022-11-16T12:09:07.030Z,6.60
2022-11-16T12:12:14.790Z,6.64
2022-11-16T12:15:07.181Z,6.68
2022-11-16T12:17:59.076Z,6.70
2022-11-16T12:21:07.024Z,6.68
2022-11-16T12:23:51.712Z,6.70
2022-11-16T12:26:38.222Z,6.71
2022-11-16T12:29:10.551Z,6.69
2022-11-16T12:31:49.357Z,6.67
2022-11-16T12:34:34.863Z,6.65
2022-11-16T12:37:35.616Z,6.66
2022-11-16T12:40:37.181Z,6.74
2022-11-16T12:43:16.820Z,6.76
2022-11-16T12:46:26.099Z,6.77
2022-11-16T12:49:01.794Z,6.74
2022-11-16T12:51:43.480Z,6.73
2022-11-16T12:54:57.666Z,6.72
2022-11-16T12:57:46.358Z,6.78
2022-11-16T13:00:18.507Z,6.88
2022-11-16T13:03:06.486Z,7.08
2022-11-16T13:05:41.921Z,7.36
2022-11-16T13:08:16.165Z,7.65
2022-11-16T13:10:45.641Z,7.89
2022-11-16T13:13:35.917Z,8.16
2022-11-16T13:16:06.830Z,8.34
2022-11-16T13:18:38.235Z,8.45
2022-11-16T13:21:11.343Z,8.46
2022-11-16T13:23:58.587Z,8.53
2022-11-16T13:26:35.950Z,8.81
2022-11-16T13:29:33.695Z,8.97
2022-11-16T13:32:46.744Z,8.90
2022-11-16T13:35:16.331Z,8.68
2022-11-16T13:37:46.176Z,8.61
2022-11-16T13:40:28.660Z,8.63
2022-11-16T13:43:04.718Z,8.52
2022-11-16T13:45:57.271Z,8.42
2022-11-16T13:48:32.810Z,8.42
2022-11-16T13:51:16.336Z,8.39
2022-11-16T13:54:43.204Z,8.42
2022-11-16T13:56:50.455Z,8.20
2022-11-16T13:59:29.833Z,7.90
2022-11-16T14:02:01.395Z,7.58
2022-11-16T14:05:00.745Z,7.25
2022-11-16T14:07:33.681Z,6.93
2022-11-16T14:10:01.717Z,6.76
2022-11-16T14:12:43.038Z,6.60
2022-11-16T14:15:24.003Z,6.43
2022-11-16T14:18:23.155Z,6.28
2022-11-16T14:20:54.393Z,6.09
2022-11-16T14:26:51.074Z,5.83
2022-11-16T14:29:30.200Z,5.70
2022-11-16T14:32:02.669Z,5.59
2022-11-16T14:34:31.836Z,5.50
2022-11-16T14:37:03.067Z,5.41
2022-11-16T14:39:36.988Z,5.32
2022-11-16T14:42:14.470Z,5.23
2022-11-16T14:44:43.168Z,5.14
2022-11-16T14:47:28.365Z,5.05
2022-11-16T14:49:55.993Z,4.99
2022-11-16T14:52:36.079Z,4.94
2022-11-16T14:55:07.067Z,4.90
2022-11-16T14:57:34.859Z,4.88
2022-11-16T15:00:09.657Z,4.80
2022-11-16T15:02:37.523Z,4.76
2022-11-16T15:05:04.936Z,4.70
2022-11-16T15:10:17.645Z,4.57
2022-11-16T15:12:50.960Z,4.51
2022-11-16T15:15:30.134Z,4.44
2022-11-16T15:17:59.531Z,4.40
2022-11-16T15:20:29.077Z,4.39
2022-11-16T15:23:00.560Z,4.38
2022-11-16T15:25:41.099Z,4.38
2022-11-16T15:28:26.318Z,4.40
2022-11-16T15:30:54.346Z,4.41
2022-11-16T15:33:30.801Z,4.42
2022-11-16T15:35:58.130Z,4.42
2022-11-16T15:38:31.785Z,4.43
2022-11-16T15:41:00.883Z,4.45
2022-11-16T15:43:35.841Z,4.45
2022-11-16T15:46:07.454Z,4.42
2022-11-16T15:48:37.827Z,4.38
2022-11-16T15:51:13.099Z,4.38
2022-11-16T15:53:44.321Z,4.37
2022-11-16T15:56:30.211Z,4.35
2022-11-16T15:59:11.093Z,4.33
2022-11-16T16:01:44.667Z,4.31
2022-11-16T16:04:18.144Z,4.28
2022-11-16T16:06:53.710Z,4.24
2022-11-16T16:09:32.643Z,4.17
2022-11-16T16:12:29.547Z,4.12
2022-11-16T16:15:25.034Z,4.08
2022-11-16T16:17:53.669Z,4.05
2022-11-16T16:20:23.490Z,4.04
2022-11-16T16:22:51.270Z,4.04
2022-11-16T16:25:26.982Z,4.04
2022-11-16T16:27:53.781Z,4.05
2022-11-16T16:30:20.792Z,4.05
2022-11-16T16:32:51.697Z,4.05
2022-11-16T16:35:23.634Z,4.03
2022-11-16T16:37:57.488Z,4.02
2022-11-16T16:40:26.996Z,4.01
2022-11-16T16:42:58.849Z,3.99
2022-11-16T16:45:35.839Z,3.95
2022-11-16T16:48:02.953Z,3.90
2022-11-16T16:50:29.732Z,3.86
2022-11-16T16:52:57.641Z,3.80
2022-11-16T16:55:24.618Z,3.72
2022-11-16T16:57:54.950Z,3.67
2022-11-16T17:00:22.116Z,3.63
2022-11-16T17:02:48.865Z,3.60
2022-11-16T17:05:16.015Z,3.58
2022-11-16T17:07:42.834Z,3.58
2022-11-16T17:10:09.520Z,3.58
2022-11-16T17:12:36.990Z,3.59
2022-11-16T17:15:04.068Z,3.60
2022-11-16T17:17:31.577Z,3.57
2022-11-16T17:20:00.000Z,3.51
2022-11-16T17:22:27.276Z,3.43
2022-11-16T17:24:55.403Z,3.34
2022-11-16T17:30:05.036Z,3.24
2022-11-16T17:32:31.863Z,3.23
2022-11-16T17:35:00.143Z,3.24
2022-11-16T17:37:35.380Z,3.25
2022-11-16T17:40:03.814Z,3.23
2022-11-16T17:42:34.741Z,3.25
2022-11-16T17:45:02.787Z,3.27
2022-11-16T17:47:32.125Z,3.32
2022-11-16T17:49:59.534Z,3.36
2022-11-16T17:52:26.411Z,3.42
2022-11-16T17:54:53.202Z,3.45
2022-11-16T17:57:20.171Z,3.44
2022-11-16T17:59:47.388Z,3.39
2022-11-16T18:02:14.108Z,3.35
2022-11-16T18:04:41.006Z,3.43
2022-11-16T18:07:07.943Z,3.56
2022-11-16T18:09:34.684Z,3.65
2022-11-16T18:12:01.405Z,3.70
2022-11-16T18:14:28.132Z,3.64
2022-11-16T18:16:54.910Z,3.50
2022-11-16T18:19:21.718Z,3.46
2022-11-16T18:21:48.609Z,3.54
2022-11-16T18:24:15.416Z,3.60
2022-11-16T18:26:42.285Z,3.61
2022-11-16T18:29:18.023Z,3.61
2022-11-16T18:31:44.941Z,3.62
2022-11-16T18:34:13.767Z,3.62
2022-11-16T18:36:40.591Z,3.62
2022-11-16T18:39:07.773Z,3.59
2022-11-16T18:41:35.193Z,3.57
2022-11-16T18:44:02.429Z,3.50
2022-11-16T18:46:31.660Z,3.38
2022-11-16T18:48:59.076Z,3.26
2022-11-16T18:51:26.980Z,3.19
2022-11-16T18:53:54.647Z,3.14
2022-11-16T18:56:21.452Z,3.14
2022-11-16T18:58:51.314Z,3.15
2022-11-16T19:01:23.563Z,3.16
2022-11-16T19:03:51.795Z,3.18
2022-11-16T19:06:18.848Z,3.20
2022-11-16T19:08:50.482Z,3.22
2022-11-16T19:11:21.388Z,3.25
2022-11-16T19:13:52.715Z,3.28
2022-11-16T19:16:19.502Z,3.30
2022-11-16T19:18:46.982Z,3.30
2022-11-16T19:21:17.838Z,3.30
2022-11-16T19:23:50.893Z,3.26
2022-11-16T19:26:19.763Z,3.32
2022-11-16T19:28:48.096Z,3.32
2022-11-16T19:31:17.937Z,3.31
2022-11-16T19:33:45.068Z,3.30
2022-11-16T19:36:14.331Z,3.28
2022-11-16T19:38:41.748Z,3.24
2022-11-16T19:41:10.762Z,3.22
2022-11-16T19:43:38.508Z,3.20
2022-11-16T19:46:11.218Z,3.19
2022-11-16T19:48:38.815Z,3.18
2022-11-16T19:51:07.962Z,3.16
2022-11-16T19:53:35.573Z,3.12
2022-11-16T19:56:04.176Z,3.09
2022-11-16T19:58:32.384Z,3.06
2022-11-16T20:01:05.774Z,3.02
2022-11-16T20:03:33.370Z,2.97
2022-11-16T20:06:09.283Z,2.92
2022-11-16T20:08:37.390Z,2.89
2022-11-16T20:11:12.314Z,2.86
2022-11-16T20:13:41.394Z,2.82
2022-11-16T20:16:10.459Z,2.79
2022-11-16T20:18:39.318Z,2.78
2022-11-16T20:21:07.676Z,2.77
2022-11-16T20:23:35.047Z,2.75
2022-11-16T20:26:06.563Z,2.75
2022-11-16T20:28:35.482Z,2.73
2022-11-16T20:31:06.438Z,2.72
2022-11-16T20:33:34.254Z,2.72
2022-11-16T20:36:07.323Z,2.73
2022-11-16T20:38:35.409Z,2.77
2022-11-16T20:41:14.652Z,2.78
2022-11-16T20:43:42.981Z,2.75
2022-11-16T20:46:14.379Z,2.75
2022-11-16T20:48:42.688Z,2.73
2022-11-16T20:51:12.159Z,2.71
2022-11-16T20:53:39.053Z,2.69
2022-11-16T20:56:07.140Z,2.65
2022-11-16T20:58:34.461Z,2.59
2022-11-16T21:01:07.590Z,2.54
2022-11-16T21:03:34.884Z,2.53
2022-11-16T21:06:01.973Z,2.59
2022-11-16T21:08:29.512Z,2.65
2022-11-16T21:10:56.321Z,2.71
2022-11-16T21:13:42.091Z,2.76
2022-11-16T21:16:11.276Z,2.81
2022-11-16T21:18:41.768Z,2.82
2022-11-16T21:21:12.097Z,2.82
2022-11-16T21:23:42.513Z,2.82
2022-11-16T21:26:14.537Z,2.80
2022-11-16T21:28:44.138Z,2.79
2022-11-16T21:31:13.546Z,2.75
2022-11-16T21:33:40.592Z,2.73
2022-11-16T21:36:10.930Z,2.69
2022-11-16T21:38:38.300Z,2.66
2022-11-16T21:41:06.067Z,2.62
2022-11-16T21:43:35.700Z,2.57
2022-11-16T21:46:06.328Z,2.54
2022-11-16T21:48:34.342Z,2.51
2022-11-16T21:51:09.397Z,2.44
2022-11-16T21:53:36.506Z,2.38
2022-11-16T21:56:05.001Z,2.33
2022-11-16T21:58:31.784Z,2.29
2022-11-16T22:01:00.370Z,2.26
2022-11-16T22:03:29.381Z,2.22
2022-11-16T22:06:18.000Z,2.18
2022-11-16T22:08:46.347Z,2.15
2022-11-16T22:11:14.626Z,2.15
2022-11-16T22:13:42.092Z,2.13
2022-11-16T22:16:11.392Z,2.12
2022-11-16T22:18:38.590Z,2.11
2022-11-16T22:21:06.260Z,2.11
2022-11-16T22:23:33.676Z,2.10
2022-11-16T22:26:09.392Z,2.08
2022-11-16T22:28:37.028Z,2.00
2022-11-16T22:31:10.114Z,1.89
2022-11-16T22:33:37.768Z,1.90
2022-11-16T22:36:07.404Z,1.91
2022-11-16T22:38:34.611Z,1.90
2022-11-16T22:41:01.341Z,1.97
2022-11-16T22:43:29.905Z,2.05
2022-11-16T22:46:01.902Z,2.05
2022-11-16T22:48:36.680Z,1.89
2022-11-16T22:51:05.168Z,1.74
2022-11-16T22:53:32.365Z,1.61
2022-11-16T22:56:07.358Z,1.52
2022-11-16T22:58:38.529Z,1.44
2022-11-16T23:01:07.568Z,1.41
2022-11-16T23:03:35.920Z,1.50
2022-11-16T23:06:04.555Z,1.67
2022-11-16T23:08:32.111Z,1.82
2022-11-16T23:11:29.176Z,1.94
2022-11-16T23:14:15.366Z,2.04
2022-11-16T23:16:42.997Z,2.11
2022-11-16T23:19:30.825Z,2.18
2022-11-16T23:22:16.954Z,2.24
2022-11-16T23:25:02.835Z,2.28
2022-11-16T23:28:01.249Z,2.30
2022-11-16T23:30:28.090Z,2.31
2022-11-16T23:32:54.797Z,2.32
2022-11-16T23:35:22.084Z,2.32
2022-11-16T23:37:55.901Z,2.31
2022-11-16T23:40:26.037Z,2.31
2022-11-16T23:43:13.730Z,2.30
2022-11-16T23:45:42.026Z,2.28
2022-11-16T23:48:10.824Z,2.28
2022-11-16T23:50:37.734Z,2.30
2022-11-16T23:53:05.889Z,2.30
2022-11-16T23:55:33.560Z,2.32
2022-11-16T23:58:00.314Z,2.34
